createdAt,value
2022-11-24T00:01:12.755Z,54.85
2022-11-24T00:06:16.881Z,59.48
2022-11-24T00:11:24.495Z,72.48
2022-11-24T00:16:37.020Z,68.05
2022-11-24T00:21:40.526Z,62.01
2022-11-24T00:26:44.053Z,52.57
2022-11-24T00:31:47.557Z,48.83
2022-11-24T00:36:50.874Z,52.20
2022-11-24T00:41:54.388Z,55.26
2022-11-24T00:46:58.033Z,56.41
2022-11-24T00:52:01.631Z,59.80
2022-11-24T00:57:05.037Z,62.20
2022-11-24T01:02:08.385Z,75.37
2022-11-24T01:07:12.036Z,70.94
2022-11-24T01:12:15.584Z,59.73
2022-11-24T01:17:19.210Z,51.08
2022-11-24T01:22:22.727Z,51.95
2022-11-24T01:27:26.142Z,53.35
2022-11-24T01:32:29.543Z,56.93
2022-11-24T01:37:33.391Z,58.50
2022-11-24T01:42:53.985Z,59.20
2022-11-24T01:47:58.015Z,68.10
2022-11-24T01:53:01.834Z,74.28
2022-11-24T01:58:19.526Z,67.11
2022-11-24T02:03:33.143Z,56.07
2022-11-24T02:08:58.672Z,51.84
2022-11-24T02:14:04.346Z,52.80
2022-11-24T02:19:40.128Z,56.75
2022-11-24T02:25:14.774Z,69.71
2022-11-24T02:30:18.681Z,69.26
2022-11-24T02:35:22.718Z,60.06
2022-11-24T02:40:30.474Z,49.60
2022-11-24T02:45:34.139Z,49.30
2022-11-24T02:50:38.314Z,53.92
2022-11-24T02:55:41.688Z,54.42
2022-11-24T03:00:45.099Z,55.71
2022-11-24T03:05:48.720Z,57.29
2022-11-24T03:10:52.079Z,69.25
2022-11-24T03:15:55.587Z,73.42
2022-11-24T03:21:02.140Z,62.84
2022-11-24T03:26:16.102Z,50.51
2022-11-24T03:31:19.590Z,49.59
2022-11-24T03:36:23.235Z,50.15
2022-11-24T03:41:26.842Z,51.58
2022-11-24T03:46:30.297Z,53.52
2022-11-24T03:51:33.701Z,57.74
2022-11-24T03:56:37.093Z,59.12
2022-11-24T04:01:40.675Z,60.37
2022-11-24T04:06:44.227Z,71.34
2022-11-24T04:12:06.573Z,74.23
2022-11-24T04:17:09.996Z,61.68
2022-11-24T04:22:13.504Z,50.80
2022-11-24T04:27:16.929Z,49.35
2022-11-24T04:32:20.562Z,51.25
2022-11-24T04:37:24.154Z,56.60
2022-11-24T04:42:27.687Z,57.46
2022-11-24T04:47:31.187Z,64.63
2022-11-24T04:52:34.818Z,75.00
2022-11-24T04:57:38.728Z,65.78
2022-11-24T05:02:42.246Z,56.10
2022-11-24T05:07:45.608Z,51.90
2022-11-24T05:12:57.656Z,53.74
2022-11-24T05:18:05.353Z,53.82
2022-11-24T05:23:09.123Z,56.56
2022-11-24T05:28:12.724Z,64.92
2022-11-24T05:33:21.113Z,75.19
2022-11-24T05:38:24.462Z,66.39
2022-11-24T05:43:27.987Z,52.89
2022-11-24T05:48:31.296Z,49.99
2022-11-24T05:53:34.711Z,50.72
2022-11-24T05:58:37.818Z,52.39
2022-11-24T06:03:41.215Z,54.60
2022-11-24T06:08:44.321Z,57.11
2022-11-24T06:13:48.936Z,58.67
2022-11-24T06:18:52.382Z,67.59
2022-11-24T06:23:55.496Z,75.28
2022-11-24T06:28:58.794Z,64.76
2022-11-24T06:34:02.309Z,52.19
2022-11-24T06:39:07.157Z,50.15
2022-11-24T06:44:10.571Z,50.60
2022-11-24T06:49:13.782Z,52.29
2022-11-24T06:54:21.431Z,54.16
2022-11-24T06:59:25.024Z,55.60
2022-11-24T07:04:28.221Z,57.27
2022-11-24T07:09:31.321Z,58.86
2022-11-24T07:14:34.841Z,60.10
2022-11-24T07:19:38.165Z,71.35
2022-11-24T07:24:41.691Z,73.68
2022-11-24T07:29:44.877Z,62.90
2022-11-24T07:34:47.994Z,52.83
2022-11-24T07:39:51.297Z,49.46
2022-11-24T07:44:54.398Z,50.31
2022-11-24T07:49:59.553Z,51.64
2022-11-24T07:55:03.286Z,53.23
2022-11-24T08:00:07.821Z,58.15
2022-11-24T08:05:11.027Z,59.77
2022-11-24T08:10:14.636Z,60.16
2022-11-24T08:15:17.746Z,72.41
2022-11-24T08:20:20.853Z,72.41
2022-11-24T08:25:25.614Z,57.64
2022-11-24T08:30:29.828Z,50.23
2022-11-24T08:35:38.303Z,49.24
2022-11-24T08:40:44.012Z,51.89
2022-11-24T08:45:47.242Z,53.38
2022-11-24T08:50:50.576Z,57.05
2022-11-24T08:55:53.758Z,58.06
2022-11-24T09:01:07.442Z,60.54
2022-11-24T09:06:11.334Z,60.72
2022-11-24T09:11:17.387Z,73.82
2022-11-24T09:16:27.893Z,71.37
2022-11-24T09:21:37.850Z,57.96
2022-11-24T09:26:46.109Z,47.81
2022-11-24T09:31:50.930Z,48.02
2022-11-24T09:36:54.041Z,50.07
2022-11-24T09:42:24.481Z,51.71
2022-11-24T09:48:14.185Z,53.54
2022-11-24T09:54:01.533Z,54.60
2022-11-24T09:59:20.819Z,56.26
2022-11-24T10:04:35.470Z,57.97
2022-11-24T10:10:01.124Z,59.52
2022-11-24T10:15:43.013Z,60.36
2022-11-24T10:21:13.928Z,74.86
2022-11-24T10:26:37.110Z,68.63
2022-11-24T10:31:44.871Z,51.71
2022-11-24T10:37:31.926Z,48.98
2022-11-24T10:42:37.289Z,49.84
2022-11-24T10:47:42.399Z,51.82
2022-11-24T10:53:07.269Z,53.38
2022-11-24T10:58:17.650Z,55.01
2022-11-24T11:03:24.487Z,56.62
2022-11-24T11:08:32.986Z,58.02
2022-11-24T11:13:36.274Z,59.13
2022-11-24T11:18:39.487Z,60.47
2022-11-24T11:23:46.160Z,72.85
2022-11-24T11:34:37.654Z,58.67
2022-11-24T11:39:54.883Z,48.61
2022-11-24T11:45:18.779Z,49.09
2022-11-24T11:51:06.779Z,50.58
2022-11-24T11:56:24.275Z,52.31
2022-11-24T12:02:12.748Z,54.77
2022-11-24T12:07:34.654Z,56.23
2022-11-24T12:13:22.445Z,55.90
2022-11-24T12:19:07.304Z,58.40
2022-11-24T12:24:39.696Z,60.59
2022-11-24T12:29:55.231Z,75.92
2022-11-24T12:35:44.816Z,70.72
2022-11-24T12:41:39.253Z,58.78
2022-11-24T12:47:06.630Z,48.83
2022-11-24T12:52:31.013Z,49.36
2022-11-24T12:57:48.090Z,51.18
2022-11-24T13:03:25.477Z,52.80
2022-11-24T13:08:30.503Z,53.95
2022-11-24T13:14:00.743Z,56.66
2022-11-24T13:19:18.299Z,58.42
2022-11-24T13:24:30.968Z,59.69
2022-11-24T13:29:37.631Z,60.98
2022-11-24T13:34:40.931Z,72.68
2022-11-24T13:39:52.936Z,72.68
2022-11-24T13:45:25.869Z,60.87
2022-11-24T13:51:14.208Z,48.66
2022-11-24T13:56:17.322Z,48.38
2022-11-24T14:01:24.458Z,50.40
2022-11-24T14:06:43.967Z,51.91
2022-11-24T14:12:12.906Z,53.78
2022-11-24T14:17:25.404Z,55.47
2022-11-24T14:22:41.763Z,58.17
2022-11-24T14:27:44.867Z,60.63
2022-11-24T14:32:59.804Z,72.38
2022-11-24T14:38:05.710Z,72.36
2022-11-24T14:43:33.023Z,60.15
2022-11-24T14:48:48.995Z,48.78
2022-11-24T14:54:03.278Z,48.91
2022-11-24T14:59:25.762Z,50.32
2022-11-24T15:05:00.894Z,51.78
2022-11-24T15:10:00.522Z,54.12
2022-11-24T15:15:16.012Z,56.99
2022-11-24T15:20:41.865Z,58.58
2022-11-24T15:25:45.597Z,59.52
2022-11-24T15:30:48.680Z,60.64
2022-11-24T15:35:52.302Z,73.44
2022-11-24T15:41:00.217Z,73.59
2022-11-24T15:46:05.191Z,61.35
2022-11-24T15:51:14.418Z,49.91
2022-11-24T15:56:36.638Z,49.60
2022-11-24T16:01:39.973Z,51.28
2022-11-24T16:06:43.396Z,52.77
2022-11-24T16:11:46.720Z,54.84
2022-11-24T16:16:50.173Z,56.43
2022-11-24T16:21:53.640Z,58.54
2022-11-24T16:26:56.850Z,59.70
2022-11-24T16:31:59.998Z,71.87
2022-11-24T16:37:03.364Z,73.67
2022-11-24T16:42:06.582Z,61.86
2022-11-24T16:47:12.212Z,50.42
2022-11-24T16:52:16.776Z,49.21
2022-11-24T16:57:20.020Z,50.43
2022-11-24T17:02:23.501Z,52.50
2022-11-24T17:07:27.569Z,54.37
2022-11-24T17:12:30.853Z,55.93
2022-11-24T17:17:34.156Z,57.94
2022-11-24T17:22:37.478Z,60.00
2022-11-24T17:27:40.796Z,72.40
2022-11-24T17:32:44.316Z,71.91
2022-11-24T17:37:47.707Z,58.53
2022-11-24T17:42:51.017Z,49.31
2022-11-24T17:47:55.660Z,50.48
2022-11-24T17:52:59.180Z,51.68
2022-11-24T17:58:02.585Z,54.38
2022-11-24T18:03:06.000Z,56.44
2022-11-24T18:08:09.516Z,58.64
2022-11-24T18:13:27.700Z,59.96
2022-11-24T18:18:40.228Z,73.68
2022-11-24T18:23:45.151Z,72.44
2022-11-24T18:28:48.366Z,61.15
2022-11-24T18:33:51.886Z,50.87
2022-11-24T18:38:55.186Z,49.51
2022-11-24T18:44:02.583Z,51.18
2022-11-24T18:49:07.589Z,52.85
2022-11-24T18:54:11.056Z,55.37
2022-11-24T18:59:14.170Z,57.24
2022-11-24T19:04:18.244Z,58.57
2022-11-24T19:09:23.042Z,60.30
2022-11-24T19:14:26.253Z,73.32
2022-11-24T19:19:34.275Z,73.49
2022-11-24T19:24:37.995Z,62.12
2022-11-24T19:29:43.185Z,53.12
2022-11-24T19:34:49.423Z,51.88
2022-11-24T19:39:52.845Z,52.95
2022-11-24T19:44:56.804Z,54.16
2022-11-24T19:50:00.517Z,55.65
2022-11-24T19:55:04.815Z,57.50
2022-11-24T20:00:09.866Z,58.96
2022-11-24T20:05:13.090Z,60.67
2022-11-24T20:10:16.294Z,72.69
2022-11-24T20:15:19.809Z,73.88
2022-11-24T20:20:22.917Z,62.53
2022-11-24T20:25:26.126Z,51.99
2022-11-24T20:30:29.459Z,50.01
2022-11-24T20:35:33.047Z,51.20
2022-11-24T20:40:36.276Z,53.20
2022-11-24T20:45:39.512Z,55.33
2022-11-24T20:50:46.915Z,57.69
2022-11-24T20:55:53.039Z,72.17
2022-11-24T21:00:56.869Z,68.74
2022-11-24T21:06:00.635Z,60.02
2022-11-24T21:11:06.634Z,50.18
2022-11-24T21:16:16.707Z,50.14
2022-11-24T21:21:22.043Z,53.20
2022-11-24T21:26:25.134Z,56.27
2022-11-24T21:31:28.356Z,57.25
2022-11-24T21:36:34.264Z,58.43
2022-11-24T21:41:37.800Z,60.17
2022-11-24T21:46:46.191Z,71.51
2022-11-24T21:51:56.041Z,73.45
2022-11-24T21:56:59.549Z,63.72
2022-11-24T22:02:02.903Z,59.50
2022-11-24T22:07:07.004Z,50.26
2022-11-24T22:12:10.157Z,50.54
2022-11-24T22:17:14.900Z,52.68
2022-11-24T22:22:18.421Z,54.82
2022-11-24T22:27:21.625Z,56.56
2022-11-24T22:32:24.763Z,57.92
2022-11-24T22:37:27.841Z,59.17
2022-11-24T22:42:30.975Z,60.56
2022-11-24T22:47:34.259Z,71.46
2022-11-24T22:52:38.908Z,73.40
2022-11-24T22:57:46.026Z,65.20
2022-11-24T23:02:51.427Z,53.95
2022-11-24T23:07:54.815Z,51.85
2022-11-24T23:12:58.302Z,54.94
2022-11-24T23:18:01.499Z,58.16
2022-11-24T23:23:04.801Z,59.63
2022-11-24T23:28:08.526Z,69.82
2022-11-24T23:33:15.094Z,73.15
2022-11-24T23:38:22.427Z,64.59
2022-11-24T23:43:28.388Z,57.39
2022-11-24T23:48:35.102Z,51.38
2022-11-24T23:53:40.865Z,53.09
2022-11-24T23:58:45.887Z,54.80
